Time;durP1;ratioP1;P1;durP2;ratioP2;P2;SDS_P1;SDS_P2;PMS_P1;PMS_P2;Temp;Humidity;BMP_temperature;BMP_pressure;BME280_temperature;BME280_humidity;BME280_pressure;Samples;Min_cycle;Max_cycle;Signal;HPM_P1;HPM_P2
2022/07/05 00:01:07;;;;;;;8.32;4.03;;;11.50;99.90;;;;;;5073527;28;20508;-46
2022/07/05 00:03:33;;;;;;;6.70;3.45;;;11.70;99.90;;;;;;5073500;28;20126;-44
2022/07/05 00:05:59;;;;;;;7.05;3.97;;;11.60;99.90;;;;;;5075016;28;20610;-47
2022/07/05 00:08:26;;;;;;;7.72;3.92;;;11.30;99.90;;;;;;5072324;28;20520;-44
2022/07/05 00:10:52;;;;;;;6.00;4.30;;;12.30;99.90;;;;;;5072615;28;20074;-45
2022/07/05 00:13:21;;;;;;;11.02;4.68;;;11.80;99.90;;;;;;5073125;28;20068;-46
2022/07/05 00:15:46;;;;;;;9.15;3.85;;;11.90;99.90;;;;;;5074451;28;20079;-46
2022/07/05 00:18:12;;;;;;;6.10;4.15;;;11.30;99.90;;;;;;5073840;28;20126;-47
2022/07/05 00:20:38;;;;;;;10.52;4.60;;;11.30;99.90;;;;;;5073500;28;20078;-46
2022/07/05 00:23:04;;;;;;;6.80;4.35;;;11.80;99.90;;;;;;5074413;28;20127;-46
2022/07/05 00:25:29;;;;;;;8.10;4.22;;;12.00;99.90;;;;;;5074491;28;21706;-46
2022/07/05 00:27:57;;;;;;;9.50;4.13;;;11.40;99.90;;;;;;5074761;28;20044;-46
2022/07/05 00:30:22;;;;;;;6.45;3.83;;;11.30;99.90;;;;;;5074654;28;20094;-46
2022/07/05 00:32:48;;;;;;;5.78;3.65;;;11.20;99.90;;;;;;5072619;28;20166;-45
2022/07/05 00:35:14;;;;;;;7.80;3.83;;;13.20;99.90;;;;;;5074389;28;20446;-46
2022/07/05 00:37:41;;;;;;;7.05;3.97;;;11.20;99.90;;;;;;5074148;28;20040;-43
2022/07/05 00:40:09;;;;;;;5.00;3.67;;;10.50;99.90;;;;;;5073774;28;20413;-46
2022/07/05 00:42:34;;;;;;;8.93;4.20;;;11.20;99.90;;;;;;5072680;28;20051;-43
2022/07/05 00:45:03;;;;;;;7.30;4.28;;;11.40;99.90;;;;;;5074324;28;20040;-47
2022/07/05 00:47:29;;;;;;;7.40;4.07;;;11.10;99.90;;;;;;5072891;28;20695;-46
2022/07/05 00:49:54;;;;;;;8.15;4.13;;;12.30;99.90;;;;;;5074530;28;20056;-44
2022/07/05 00:52:20;;;;;;;6.65;4.63;;;12.00;99.90;;;;;;5076826;28;20130;-42
2022/07/05 00:54:46;;;;;;;5.22;4.28;;;12.50;99.90;;;;;;5077765;28;20071;-50
2022/07/05 00:57:12;;;;;;;7.03;4.65;;;11.00;99.90;;;;;;5077745;28;20036;-42
2022/07/05 00:59:38;;;;;;;8.48;5.07;;;10.90;99.90;;;;;;5077090;28;20039;-47
2022/07/05 01:02:03;;;;;;;6.53;4.90;;;11.90;99.90;;;;;;5078815;28;20368;-43
2022/07/05 01:04:29;;;;;;;6.95;4.55;;;11.10;99.90;;;;;;5076954;28;20817;-41
2022/07/05 01:06:55;;;;;;;8.90;4.70;;;12.10;99.90;;;;;;5077893;28;20473;-44
2022/07/05 01:09:23;;;;;;;9.10;4.82;;;11.20;99.90;;;;;;5077135;28;20108;-44
2022/07/05 01:11:50;;;;;;;8.90;4.80;;;10.90;99.90;;;;;;5076942;28;20115;-43
2022/07/05 01:14:18;;;;;;;7.00;4.35;;;11.10;99.90;;;;;;5078266;28;20036;-44
2022/07/05 01:16:46;;;;;;;6.53;4.45;;;9.70;99.90;;;;;;5077858;28;20044;-44
2022/07/05 01:19:13;;;;;;;7.55;4.00;;;10.80;99.90;;;;;;5076438;28;20040;-43
2022/07/05 01:21:41;;;;;;;9.02;4.90;;;10.90;99.90;;;;;;5075949;28;20039;-42
2022/07/05 01:24:09;;;;;;;7.57;4.78;;;10.90;99.90;;;;;;5078390;28;20044;-46
2022/07/05 01:26:36;;;;;;;7.03;4.70;;;10.20;99.90;;;;;;5076670;28;20036;-44
2022/07/05 01:29:02;;;;;;;9.30;4.40;;;11.00;99.90;;;;;;5076947;28;20043;-43
2022/07/05 01:31:28;;;;;;;6.38;4.20;;;11.10;99.90;;;;;;5076678;28;20032;-44
2022/07/05 01:33:53;;;;;;;7.38;4.78;;;11.60;99.90;;;;;;5077306;28;20044;-46
2022/07/05 01:36:20;;;;;;;8.05;5.47;;;10.70;99.90;;;;;;5077624;28;20039;-45
2022/07/05 01:38:46;;;;;;;10.52;5.15;;;10.70;99.90;;;;;;5075668;28;20122;-48
2022/07/05 01:41:11;;;;;;;7.85;5.05;;;11.90;99.90;;;;;;5076343;28;20413;-47
2022/07/05 01:43:37;;;;;;;7.25;4.85;;;12.90;99.90;;;;;;5075800;28;20055;-44
2022/07/05 01:46:05;;;;;;;7.05;5.03;;;10.70;99.90;;;;;;5076780;28;20043;-47
2022/07/05 01:48:33;;;;;;;7.07;5.22;;;10.60;99.90;;;;;;5075602;28;20040;-43
2022/07/05 01:51:07;;;;;;;9.90;5.18;;;10.60;99.90;;;;;;5076456;28;20051;-47
2022/07/05 01:53:33;;;;;;;10.27;5.07;;;10.60;99.90;;;;;;5075423;28;20198;-43
2022/07/05 01:56:00;;;;;;;8.90;5.63;;;10.50;99.90;;;;;;5077322;28;20840;-47
2022/07/05 01:58:26;;;;;;;10.10;5.68;;;11.70;99.90;;;;;;5075854;28;20036;-43
2022/07/05 02:00:53;;;;;;;6.95;5.35;;;10.70;99.90;;;;;;5078137;28;20514;-42
2022/07/05 02:03:19;;;;;;;9.90;5.70;;;10.60;99.90;;;;;;5077713;28;20522;-42
2022/07/05 02:05:47;;;;;;;9.68;6.15;;;10.60;99.90;;;;;;5076604;28;20534;-41
2022/07/05 02:08:14;;;;;;;6.75;5.25;;;10.60;99.90;;;;;;5075568;28;20834;-42
2022/07/05 02:10:40;;;;;;;8.10;5.78;;;10.40;99.90;;;;;;5076232;28;20036;-41
2022/07/05 02:13:07;;;;;;;11.75;5.80;;;10.60;99.90;;;;;;5077810;28;20122;-41
2022/07/05 02:15:38;;;;;;;8.57;5.35;;;10.40;99.90;;;;;;5076088;28;20520;-42
2022/07/05 02:18:04;;;;;;;8.20;5.47;;;8.20;99.90;;;;;;5076830;28;20044;-42
2022/07/05 02:20:31;;;;;;;10.77;5.93;;;10.20;99.90;;;;;;5076511;28;20065;-40
2022/07/05 02:22:57;;;;;;;8.13;5.65;;;10.40;99.90;;;;;;5076874;28;20066;-41
2022/07/05 02:25:25;;;;;;;8.13;5.93;;;10.60;99.90;;;;;;5076986;28;20039;-40
2022/07/05 02:27:52;;;;;;;9.57;5.70;;;10.40;99.90;;;;;;5077796;28;20066;-41
2022/07/05 02:30:18;;;;;;;7.53;5.53;;;10.10;99.90;;;;;;5074908;28;20040;-41
2022/07/05 02:32:45;;;;;;;6.20;5.43;;;10.30;99.90;;;;;;5076975;28;20044;-41
2022/07/05 02:35:11;;;;;;;7.63;5.65;;;10.20;99.90;;;;;;5076888;28;20063;-41
2022/07/05 02:37:39;;;;;;;8.10;6.00;;;10.20;99.90;;;;;;5077237;28;20568;-46
2022/07/05 02:40:10;;;;;;;7.82;5.82;;;10.90;99.90;;;;;;5075868;28;20040;-44
2022/07/05 02:42:38;;;;;;;8.48;6.43;;;10.20;99.90;;;;;;5076164;28;20565;-42
2022/07/05 02:45:05;;;;;;;10.63;7.18;;;10.70;99.90;;;;;;5075144;28;20036;-43
2022/07/05 02:47:31;;;;;;;7.38;5.72;;;10.30;99.90;;;;;;5075340;28;20044;-45
2022/07/05 02:50:06;;;;;;;7.25;5.82;;;10.30;99.90;;;;;;5074900;28;20052;-45
2022/07/05 02:52:32;;;;;;;9.40;6.28;;;10.20;99.90;;;;;;5075443;28;20122;-46
2022/07/05 02:54:58;;;;;;;9.25;6.15;;;10.20;99.90;;;;;;5076017;28;20040;-46
2022/07/05 02:57:24;;;;;;;8.65;6.35;;;10.30;99.90;;;;;;5076407;28;20046;-42
2022/07/05 02:59:52;;;;;;;7.20;6.35;;;10.20;99.90;;;;;;5073590;28;20048;-44
2022/07/05 03:02:17;;;;;;;7.97;5.70;;;12.30;99.90;;;;;;5073294;28;20047;-46
2022/07/05 03:04:45;;;;;;;10.73;6.47;;;11.20;99.90;;;;;;5076475;28;20657;-46
2022/07/05 03:07:10;;;;;;;12.15;7.18;;;10.80;99.90;;;;;;5075987;28;20042;-46
2022/07/05 03:09:36;;;;;;;7.32;6.18;;;10.20;99.90;;;;;;5075355;28;20041;-46
2022/07/05 03:12:02;;;;;;;8.18;6.82;;;10.10;99.90;;;;;;5074756;28;20047;-46
2022/07/05 03:14:28;;;;;;;8.43;6.90;;;10.10;99.90;;;;;;5075157;28;20040;-46
2022/07/05 03:16:53;;;;;;;11.68;6.60;;;10.40;99.90;;;;;;5075190;28;20131;-43
2022/07/05 03:19:21;;;;;;;9.88;7.05;;;10.20;99.90;;;;;;5074602;28;20456;-42
2022/07/05 03:21:47;;;;;;;9.70;6.90;;;10.10;99.90;;;;;;5074676;28;20044;-45
2022/07/05 03:24:14;;;;;;;9.65;6.68;;;11.00;99.90;;;;;;5075143;28;20036;-46
2022/07/05 03:26:40;;;;;;;9.38;6.80;;;11.70;99.90;;;;;;5074944;28;20540;-47
2022/07/05 03:29:06;;;;;;;11.15;6.55;;;11.20;99.90;;;;;;5075694;28;20178;-48
2022/07/05 03:31:32;;;;;;;10.30;6.60;;;10.20;99.90;;;;;;5073540;28;20206;-45
2022/07/05 03:33:57;;;;;;;9.80;7.20;;;10.20;99.90;;;;;;5075711;28;20051;-44
2022/07/05 03:36:23;;;;;;;9.23;6.90;;;12.20;99.90;;;;;;5075504;28;20039;-45
2022/07/05 03:38:50;;;;;;;8.07;6.70;;;10.30;99.90;;;;;;5074693;28;20036;-46
2022/07/05 03:41:18;;;;;;;10.32;7.15;;;10.20;99.90;;;;;;5073717;28;20040;-44
2022/07/05 03:43:44;;;;;;;8.80;6.65;;;10.40;99.90;;;;;;5074017;28;20538;-45
2022/07/05 03:46:09;;;;;;;9.45;6.75;;;10.60;99.90;;;;;;5074449;28;20196;-44
2022/07/05 03:48:37;;;;;;;10.43;7.20;;;10.40;99.90;;;;;;5074046;28;20062;-43
2022/07/05 03:51:03;;;;;;;9.40;7.45;;;10.50;99.90;;;;;;5073390;28;20052;-52
2022/07/05 03:53:28;;;;;;;9.23;7.45;;;10.50;99.90;;;;;;5073749;28;20052;-44
2022/07/05 03:55:54;;;;;;;10.60;7.72;;;10.60;99.90;;;;;;5074612;28;20067;-48
2022/07/05 03:58:20;;;;;;;14.15;7.88;;;12.10;99.90;;;;;;5071607;28;20047;-45
2022/07/05 04:00:45;;;;;;;11.60;7.78;;;12.00;99.90;;;;;;5073015;28;20032;-46
2022/07/05 04:03:11;;;;;;;15.13;8.95;;;11.00;99.90;;;;;;5073922;28;20036;-45
2022/07/05 04:05:37;;;;;;;10.63;7.85;;;10.90;99.90;;;;;;5073915;28;20039;-43
2022/07/05 04:08:03;;;;;;;10.88;8.18;;;11.10;99.90;;;;;;5073646;28;20402;-47
2022/07/05 04:10:31;;;;;;;11.75;8.68;;;11.20;99.90;;;;;;5073187;28;20090;-46
2022/07/05 04:12:56;;;;;;;8.98;8.07;;;11.30;99.90;;;;;;5072955;28;20113;-46
2022/07/05 04:15:22;;;;;;;10.35;7.97;;;11.40;99.90;;;;;;5074271;28;20028;-46
2022/07/05 04:17:53;;;;;;;13.77;8.40;;;11.60;99.90;;;;;;5074243;28;20603;-46
2022/07/05 04:20:21;;;;;;;13.02;7.75;;;11.80;99.90;;;;;;5073863;28;20075;-44
2022/07/05 04:22:48;;;;;;;10.63;6.57;;;11.80;99.90;;;;;;5073854;28;20123;-47
2022/07/05 04:25:17;;;;;;;12.05;7.03;;;12.90;99.90;;;;;;5072028;28;20036;-44
2022/07/05 04:27:54;;;;;;;11.57;7.65;;;13.50;99.90;;;;;;5072251;28;20070;-47
2022/07/05 04:30:22;;;;;;;15.10;7.55;;;12.10;99.90;;;;;;5071675;28;20111;-44
2022/07/05 04:32:48;;;;;;;9.68;6.60;;;13.60;99.90;;;;;;5073360;28;20484;-45
2022/07/05 04:35:14;;;;;;;12.18;6.65;;;12.20;99.90;;;;;;5073751;28;20032;-46
2022/07/05 04:37:42;;;;;;;8.73;6.97;;;12.40;99.90;;;;;;5072955;28;20106;-47
2022/07/05 04:40:10;;;;;;;10.98;7.13;;;12.40;99.90;;;;;;5073029;28;20048;-44
2022/07/05 04:42:37;;;;;;;10.15;7.40;;;12.40;99.90;;;;;;5074194;28;20036;-45
2022/07/05 04:45:03;;;;;;;10.02;6.30;;;14.70;99.90;;;;;;5072840;28;20074;-44
2022/07/05 04:47:29;;;;;;;7.05;5.80;;;12.60;99.90;;;;;;5071309;28;20047;-45
2022/07/05 04:49:57;;;;;;;8.25;5.53;;;12.70;99.90;;;;;;4974729;28;2800231;-46
2022/07/05 04:52:23;;;;;;;8.02;5.90;;;12.70;99.90;;;;;;5073527;28;20051;-46
2022/07/05 04:54:49;;;;;;;8.38;5.72;;;13.50;99.90;;;;;;5073508;28;20071;-43
2022/07/05 04:57:14;;;;;;;9.45;5.30;;;14.90;99.90;;;;;;5073013;28;20721;-47
2022/07/05 04:59:42;;;;;;;5.82;5.00;;;12.80;99.90;;;;;;5073012;28;20044;-45
2022/07/05 05:02:08;;;;;;;6.38;4.93;;;14.40;99.90;;;;;;5074114;28;20047;-47
2022/07/05 05:04:33;;;;;;;8.32;4.45;;;13.20;99.90;;;;;;5072796;28;20040;-45
2022/07/05 05:06:59;;;;;;;8.60;4.68;;;13.60;99.90;;;;;;5073710;28;20039;-43
2022/07/05 05:09:25;;;;;;;6.10;3.90;;;13.40;99.90;;;;;;5073068;28;20044;-45
2022/07/05 05:11:51;;;;;;;6.85;3.90;;;13.50;99.90;;;;;;5073901;28;20036;-46
2022/07/05 05:14:16;;;;;;;8.60;4.15;;;14.00;99.90;;;;;;5073112;28;20032;-47
2022/07/05 05:16:42;;;;;;;8.32;3.92;;;13.90;99.90;;;;;;5072131;28;20466;-44
2022/07/05 05:19:10;;;;;;;5.65;3.70;;;14.80;99.90;;;;;;5073454;28;20166;-45
2022/07/05 05:21:35;;;;;;;6.47;3.55;;;13.60;99.90;;;;;;5072771;28;20032;-45
2022/07/05 05:24:01;;;;;;;9.32;3.80;;;13.90;99.90;;;;;;5072951;28;20036;-46
2022/07/05 05:26:29;;;;;;;8.07;3.90;;;14.00;99.90;;;;;;5071975;28;20048;-45
2022/07/05 05:28:54;;;;;;;5.82;3.08;;;14.80;99.90;;;;;;5071978;28;20377;-47
2022/07/05 05:31:20;;;;;;;7.82;3.33;;;14.20;99.90;;;;;;5073932;28;20516;-44
2022/07/05 05:33:46;;;;;;;8.93;3.33;;;14.30;99.90;;;;;;5073050;28;20040;-46
2022/07/05 05:36:12;;;;;;;5.47;2.65;;;15.00;99.90;;;;;;5075076;28;20063;-47
2022/07/05 05:38:38;;;;;;;12.45;3.25;;;14.60;99.90;;;;;;5074040;28;20105;-47
2022/07/05 05:41:03;;;;;;;8.65;2.90;;;14.70;99.90;;;;;;5076487;28;20321;-45
2022/07/05 05:43:29;;;;;;;6.97;2.50;;;14.80;99.90;;;;;;5075137;28;20145;-47
2022/07/05 05:45:55;;;;;;;4.68;2.50;;;15.70;99.90;;;;;;5076161;28;20043;-45
2022/07/05 05:48:21;;;;;;;6.68;2.45;;;17.80;99.90;;;;;;5077134;28;20156;-47
2022/07/05 05:50:47;;;;;;;5.53;1.95;;;15.40;99.90;;;;;;5075813;28;20497;-46
2022/07/05 05:53:13;;;;;;;7.18;2.22;;;15.40;99.90;;;;;;5076640;28;20127;-46
2022/07/05 05:55:39;;;;;;;8.20;2.10;;;17.40;99.90;;;;;;5075909;28;20040;-47
2022/07/05 05:58:23;;;;;;;5.93;1.95;;;15.70;99.90;;;;;;5072426;28;20463;-48
2022/07/05 06:00:52;;;;;;;7.85;2.65;;;15.70;99.90;;;;;;5075608;28;20487;-46
2022/07/05 06:03:22;;;;;;;6.97;2.28;;;15.80;99.90;;;;;;5076102;28;20372;-48
2022/07/05 06:05:48;;;;;;;7.03;1.80;;;15.90;99.90;;;;;;5077477;28;20090;-47
2022/07/05 06:08:14;;;;;;;7.93;2.00;;;16.10;99.90;;;;;;5076056;28;20576;-46
2022/07/05 06:10:42;;;;;;;5.93;1.92;;;16.80;99.90;;;;;;5076839;28;20036;-44
2022/07/05 06:13:09;;;;;;;5.18;1.80;;;17.40;99.90;;;;;;5076743;28;20105;-42
2022/07/05 06:15:36;;;;;;;5.57;1.48;;;17.00;99.90;;;;;;5075794;28;20082;-47
2022/07/05 06:18:02;;;;;;;4.43;1.60;;;16.30;99.90;;;;;;5076219;28;20040;-47
2022/07/05 06:20:32;;;;;;;6.82;1.40;;;16.60;99.90;;;;;;5075470;28;20036;-45
2022/07/05 06:23:00;;;;;;;14.43;2.33;;;17.80;99.90;;;;;;5076458;28;20379;-45
2022/07/05 06:25:27;;;;;;;3.83;1.40;;;18.70;94.50;;;;;;5076435;28;20035;-44
2022/07/05 06:27:59;;;;;;;7.35;2.05;;;20.60;90.50;;;;;;5075218;28;20036;-44
2022/07/05 06:30:27;;;;;;;8.27;1.77;;;19.10;74.60;;;;;;5074846;28;20050;-44
2022/07/05 06:32:55;;;;;;;6.18;1.65;;;20.40;74.20;;;;;;5075365;28;20462;-43
2022/07/05 06:35:22;;;;;;;5.90;1.83;;;18.30;76.00;;;;;;5076268;28;20044;-43
2022/07/05 06:37:48;;;;;;;6.75;0.98;;;19.40;72.40;;;;;;5075498;28;20055;-44
2022/07/05 06:40:19;;;;;;;6.05;1.10;;;18.50;61.70;;;;;;5076900;28;20126;-46
2022/07/05 06:42:45;;;;;;;3.73;0.90;;;18.60;57.50;;;;;;5076338;28;20044;-45
2022/07/05 06:45:11;;;;;;;5.22;1.30;;;18.40;69.10;;;;;;5075475;28;20281;-46
2022/07/05 06:47:37;;;;;;;5.32;0.80;;;18.50;56.70;;;;;;5076062;28;20564;-45
2022/07/05 06:50:04;;;;;;;5.82;1.08;;;16.70;60.10;;;;;;5073678;28;20040;-45
2022/07/05 06:52:31;;;;;;;3.38;0.90;;;18.60;58.10;;;;;;5076063;28;20086;-48
2022/07/05 06:54:58;;;;;;;9.20;1.05;;;19.40;57.10;;;;;;5075963;28;20055;-46
2022/07/05 06:57:23;;;;;;;2.47;0.63;;;19.00;45.20;;;;;;5073942;28;20048;-44
2022/07/05 06:59:50;;;;;;;3.80;0.90;;;21.00;33.40;;;;;;5074735;28;20404;-46
2022/07/05 07:02:16;;;;;;;2.67;0.80;;;20.00;8.80;;;;;;5075882;28;20032;-44
2022/07/05 07:04:42;;;;;;;6.50;1.10;;;19.90;1.00;;;;;;5075317;28;20499;-45
2022/07/05 07:09:17;;;;;;;3.33;0.80;;;19.80;1.00;;;;;;5074488;28;20050;-46
2022/07/05 07:10:00;;;;;;;5.53;0.85;;;19.90;1.00;;;;;;5074546;28;20119;-42
2022/07/05 07:12:27;;;;;;;5.82;1.52;;;20.40;1.00;;;;;;5074587;28;20051;-43
2022/07/05 07:14:52;;;;;;;5.10;0.93;;;20.50;99.90;;;;;;5075222;28;20059;-47
2022/07/05 07:17:18;;;;;;;3.45;0.70;;;20.40;74.10;;;;;;5075621;28;20040;-44
2022/07/05 07:19:43;;;;;;;3.53;0.70;;;20.50;7.00;;;;;;5074644;28;20048;-44
2022/07/05 07:22:09;;;;;;;5.15;1.15;;;21.10;99.90;;;;;;5073528;28;20044;-46
2022/07/05 07:24:35;;;;;;;4.00;0.75;;;21.50;1.00;;;;;;5075530;28;20063;-47
2022/07/05 07:27:04;;;;;;;6.10;0.85;;;24.10;99.90;;;;;;5076137;28;20833;-46
2022/07/05 07:29:35;;;;;;;4.18;0.70;;;23.10;99.90;;;;;;5074766;28;20048;-47
2022/07/05 07:32:02;;;;;;;4.68;0.80;;;23.30;99.90;;;;;;5074071;28;20063;-47
2022/07/05 07:34:28;;;;;;;5.60;1.23;;;23.30;99.90;;;;;;5073772;28;20346;-48
2022/07/05 07:36:54;;;;;;;2.33;0.57;;;23.40;1.00;;;;;;5074496;28;20535;-46
2022/07/05 07:39:20;;;;;;;2.85;0.90;;;22.80;99.90;;;;;;5074437;28;20036;-45
2022/07/05 07:41:46;;;;;;;4.05;0.90;;;22.50;99.90;;;;;;5073886;28;20043;-46
2022/07/05 07:44:12;;;;;;;4.30;0.88;;;24.20;99.90;;;;;;5073868;28;20036;-46
2022/07/05 07:46:40;;;;;;;5.75;0.90;;;23.50;99.90;;;;;;5073857;28;20605;-46
2022/07/05 07:49:07;;;;;;;4.53;1.02;;;24.90;99.90;;;;;;5073142;28;20390;-46
2022/07/05 07:51:33;;;;;;;5.95;1.23;;;25.60;99.90;;;;;;5073485;28;20464;-46
2022/07/05 07:54:01;;;;;;;3.47;0.88;;;26.50;1.00;;;;;;5073534;28;20123;-45
2022/07/05 07:56:27;;;;;;;5.18;1.08;;;27.20;99.90;;;;;;5073454;28;20062;-45
2022/07/05 07:58:53;;;;;;;6.72;1.10;;;27.30;99.90;;;;;;5073983;28;20036;-45
2022/07/05 08:01:19;;;;;;;4.72;0.93;;;26.80;69.20;;;;;;5073774;28;20082;-45
2022/07/05 08:03:47;;;;;;;5.72;1.05;;;27.10;18.60;;;;;;5073109;28;20058;-44
2022/07/05 08:06:13;;;;;;;5.10;0.95;;;27.00;1.00;;;;;;5074733;28;20043;-44
2022/07/05 08:08:41;;;;;;;4.40;1.00;;;26.70;1.00;;;;;;5074437;28;20070;-47
2022/07/05 08:11:09;;;;;;;5.20;0.77;;;27.00;1.00;;;;;;5074327;28;20484;-45
2022/07/05 08:13:35;;;;;;;5.10;0.90;;;27.00;1.00;;;;;;5075144;28;20040;-45
2022/07/05 08:16:01;;;;;;;4.75;1.00;;;27.10;1.00;;;;;;5074708;28;20036;-45
2022/07/05 08:21:32;;;;;;;4.22;0.98;;;27.70;99.90;;;;;;5074214;28;20050;-48
2022/07/05 08:24:08;;;;;;;5.57;1.00;;;27.00;99.90;;;;;;5074069;28;20039;-44
2022/07/05 08:26:35;;;;;;;5.10;1.10;;;26.50;99.90;;;;;;5073998;28;20070;-47
2022/07/05 08:29:04;;;;;;;5.28;0.80;;;25.70;99.90;;;;;;5073532;28;20500;-44
2022/07/05 08:31:32;;;;;;;3.15;0.82;;;24.70;99.90;;;;;;5073469;28;20408;-44
2022/07/05 08:33:58;;;;;;;4.35;0.82;;;24.30;99.90;;;;;;5075028;28;20036;-44
2022/07/05 08:36:26;;;;;;;4.53;1.00;;;24.10;99.90;;;;;;5073594;28;20511;-44
2022/07/05 08:38:52;;;;;;;4.22;0.85;;;23.90;99.90;;;;;;5075094;28;20724;-43
2022/07/05 08:41:21;;;;;;;6.18;1.30;;;24.60;99.90;;;;;;5073882;28;20822;-44
2022/07/05 08:43:48;;;;;;;3.50;0.85;;;23.50;99.90;;;;;;5073448;28;20918;-43
2022/07/05 08:46:15;;;;;;;5.50;1.08;;;24.10;99.90;;;;;;5072444;28;20082;-45
2022/07/05 08:48:43;;;;;;;5.18;1.02;;;24.90;99.90;;;;;;5072632;28;20035;-44
2022/07/05 08:51:16;;;;;;;5.72;1.27;;;24.30;99.90;;;;;;5072277;28;20173;-43
2022/07/05 08:53:44;;;;;;;7.68;1.00;;;23.20;99.90;;;;;;5072201;28;20191;-48
2022/07/05 08:56:11;;;;;;;6.28;0.90;;;22.20;99.90;;;;;;5072840;28;20064;-45
2022/07/05 08:58:37;;;;;;;5.22;0.85;;;21.70;99.90;;;;;;5072520;28;20045;-46
2022/07/05 09:01:06;;;;;;;6.35;0.98;;;21.10;99.90;;;;;;5074121;28;20040;-44
2022/07/05 09:03:34;;;;;;;5.47;1.10;;;20.40;1.00;;;;;;5072941;28;20036;-45
2022/07/05 09:06:03;;;;;;;3.70;0.70;;;22.60;1.00;;;;;;5073001;28;20479;-43
2022/07/05 09:08:38;;;;;;;4.47;0.98;;;21.90;1.00;;;;;;5074258;28;20371;-44
2022/07/05 09:11:12;;;;;;;6.78;1.05;;;22.80;1.00;;;;;;5073660;28;20502;-43
2022/07/05 09:13:41;;;;;;;4.10;1.00;;;25.70;99.90;;;;;;5076614;28;20093;-44
2022/07/05 09:16:08;;;;;;;5.45;0.90;;;23.20;1.00;;;;;;5076714;28;20126;-43
2022/07/05 09:18:42;;;;;;;4.32;0.90;;;22.40;1.00;;;;;;5057651;28;20044;-44
2022/07/05 09:21:19;;;;;;;5.63;1.00;;;22.00;1.00;;;;;;5077240;28;20351;-45
2022/07/05 09:23:58;;;;;;;5.18;1.15;;;21.90;1.00;;;;;;5076578;28;20040;-43
2022/07/05 09:26:38;;;;;;;4.28;1.23;;;21.00;1.00;;;;;;5075944;28;20036;-42
2022/07/05 09:29:07;;;;;;;3.85;0.80;;;20.70;1.00;;;;;;5075730;28;20127;-42
2022/07/05 09:31:35;;;;;;;6.28;1.20;;;21.00;1.00;;;;;;5077526;28;20044;-42
2022/07/05 09:34:10;;;;;;;4.45;0.98;;;20.20;1.00;;;;;;5076857;28;20054;-42
2022/07/05 09:37:01;;;;;;;6.20;0.90;;;20.70;92.00;;;;;;5076713;28;20040;-42
2022/07/05 09:39:30;;;;;;;3.85;1.08;;;21.00;99.90;;;;;;5075883;28;20044;-43
2022/07/05 09:42:14;;;;;;;5.63;1.00;;;21.30;99.90;;;;;;5077818;28;20109;-44
2022/07/05 09:44:45;;;;;;;6.03;0.93;;;22.60;99.90;;;;;;5076124;28;20039;-43
2022/07/05 09:47:13;;;;;;;6.88;1.10;;;21.10;99.90;;;;;;5076699;28;20039;-44
2022/07/05 09:49:43;;;;;;;3.80;0.98;;;21.20;99.90;;;;;;5076187;28;20505;-43
2022/07/05 09:52:09;;;;;;;3.97;0.90;;;21.50;99.90;;;;;;5075766;28;20052;-43
2022/07/05 09:54:35;;;;;;;6.28;0.98;;;23.20;99.90;;;;;;5075537;28;20424;-45
2022/07/05 09:57:01;;;;;;;4.80;1.10;;;21.20;99.90;;;;;;5077157;28;20036;-42
2022/07/05 09:59:26;;;;;;;4.40;0.90;;;23.10;99.90;;;;;;5075719;28;20035;-46
2022/07/05 10:01:52;;;;;;;6.78;1.42;;;21.20;99.90;;;;;;5075052;28;20071;-47
2022/07/05 10:04:18;;;;;;;5.47;1.40;;;21.10;99.90;;;;;;5076356;28;20032;-43
2022/07/05 10:06:44;;;;;;;4.40;0.93;;;21.80;99.90;;;;;;5077110;28;20111;-44
2022/07/05 10:09:11;;;;;;;6.18;1.00;;;20.40;99.90;;;;;;5074785;28;21009;-45
2022/07/05 10:11:42;;;;;;;4.18;1.02;;;20.10;99.90;;;;;;5075997;28;20075;-43
2022/07/05 10:14:17;;;;;;;10.40;0.98;;;20.10;99.90;;;;;;5076115;28;20115;-44
2022/07/05 10:16:52;;;;;;;3.50;1.20;;;20.10;99.90;;;;;;5075697;28;20040;-45
2022/07/05 10:19:21;;;;;;;3.53;1.00;;;20.50;99.90;;;;;;5076359;28;20356;-43
2022/07/05 10:21:47;;;;;;;4.38;0.90;;;20.80;99.90;;;;;;5075975;28;20746;-43
2022/07/05 10:24:15;;;;;;;3.65;0.90;;;21.50;99.90;;;;;;5076533;28;20050;-47
2022/07/05 10:26:44;;;;;;;6.57;0.93;;;22.00;99.90;;;;;;5074620;28;20040;-44
2022/07/05 10:29:11;;;;;;;4.47;0.70;;;21.80;99.90;;;;;;5075331;28;20400;-45
2022/07/05 10:31:37;;;;;;;9.43;1.27;;;21.60;99.90;;;;;;5074954;28;20049;-43
2022/07/05 10:34:07;;;;;;;4.10;0.90;;;21.00;95.50;;;;;;5075841;28;20040;-42
2022/07/05 10:36:34;;;;;;;6.18;1.10;;;20.80;99.90;;;;;;5075760;28;20051;-44
2022/07/05 10:39:01;;;;;;;8.20;1.33;;;20.40;99.90;;;;;;5076270;28;20039;-45
2022/07/05 10:41:29;;;;;;;5.28;1.15;;;20.10;99.90;;;;;;5073807;28;20053;-46
2022/07/05 10:43:58;;;;;;;7.20;1.20;;;20.10;99.90;;;;;;5074949;28;20496;-42
2022/07/05 10:46:35;;;;;;;6.80;1.00;;;20.20;99.90;;;;;;5074675;28;21360;-43
2022/07/05 10:49:16;;;;;;;8.60;1.20;;;20.00;99.90;;;;;;5073943;28;20100;-44
2022/07/05 10:51:42;;;;;;;5.30;1.13;;;20.10;99.90;;;;;;5074946;28;20048;-46
2022/07/05 10:54:08;;;;;;;3.33;0.70;;;20.60;99.90;;;;;;5075244;28;20189;-47
2022/07/05 10:56:34;;;;;;;4.80;1.05;;;20.50;99.90;;;;;;5074418;28;20054;-43
2022/07/05 10:59:10;;;;;;;4.78;1.48;;;20.30;99.90;;;;;;5074953;28;20044;-42
2022/07/05 11:01:38;;;;;;;3.85;0.85;;;20.30;99.90;;;;;;5072776;28;20105;-45
2022/07/05 11:04:04;;;;;;;2.92;0.60;;;20.40;99.90;;;;;;5075176;28;20065;-43
2022/07/05 11:06:46;;;;;;;5.93;0.90;;;20.60;99.90;;;;;;5074610;28;20119;-42
2022/07/05 11:09:11;;;;;;;6.88;0.95;;;20.90;99.90;;;;;;5074744;28;20040;-46
2022/07/05 11:11:40;;;;;;;5.85;0.80;;;21.20;99.90;;;;;;5074130;28;20324;-46
2022/07/05 11:14:25;;;;;;;4.53;0.90;;;21.50;99.90;;;;;;5074264;28;20028;-43
2022/07/05 11:17:13;;;;;;;3.28;0.80;;;22.10;99.90;;;;;;5073882;28;20043;-43
2022/07/05 11:20:22;;;;;;;5.10;0.85;;;22.40;99.90;;;;;;5073339;28;20052;-43
2022/07/05 11:23:04;;;;;;;6.07;1.25;;;23.70;99.90;;;;;;5074415;28;20044;-44
2022/07/05 11:25:32;;;;;;;5.10;0.70;;;23.20;99.90;;;;;;5073466;28;20035;-43
2022/07/05 11:28:19;;;;;;;5.45;0.95;;;23.20;99.90;;;;;;5074590;28;20036;-45
2022/07/05 11:30:52;;;;;;;5.28;0.80;;;23.00;99.90;;;;;;5074129;28;20123;-43
2022/07/05 11:33:33;;;;;;;2.72;0.77;;;22.70;99.90;;;;;;5074720;28;20398;-44
2022/07/05 11:36:00;;;;;;;4.50;0.82;;;23.00;99.90;;;;;;5071587;28;20282;-43
2022/07/05 11:38:26;;;;;;;5.38;0.65;;;22.90;99.90;;;;;;5075103;28;20044;-44
2022/07/05 11:40:53;;;;;;;2.22;0.43;;;22.30;98.80;;;;;;5074047;28;20690;-47
2022/07/05 11:43:28;;;;;;;5.90;0.90;;;21.90;96.70;;;;;;5075120;28;20036;-48
2022/07/05 11:46:00;;;;;;;7.43;0.80;;;21.10;99.90;;;;;;5074364;28;20400;-44
2022/07/05 11:48:27;;;;;;;5.85;1.17;;;20.70;99.90;;;;;;5074848;28;20036;-47
2022/07/05 11:50:55;;;;;;;6.45;1.15;;;20.30;99.90;;;;;;5073667;28;20420;-43
2022/07/05 11:53:31;;;;;;;9.93;1.02;;;20.40;99.90;;;;;;5073952;28;20073;-48
2022/07/05 11:56:00;;;;;;;5.07;0.90;;;20.40;99.90;;;;;;5073752;28;20040;-44
2022/07/05 11:58:33;;;;;;;7.28;1.17;;;21.00;99.90;;;;;;5073298;28;20584;-47
2022/07/05 12:01:01;;;;;;;5.53;1.13;;;21.10;99.90;;;;;;5073812;28;20051;-43
2022/07/05 12:03:29;;;;;;;7.00;1.20;;;19.90;99.90;;;;;;5074169;28;20180;-44
2022/07/05 12:05:55;;;;;;;5.15;0.93;;;19.60;99.90;;;;;;5074267;28;20035;-44
2022/07/05 12:08:22;;;;;;;5.20;0.98;;;19.50;1.00;;;;;;5075207;28;20537;-45
2022/07/05 12:13:46;;;;;;;5.25;0.70;;;19.30;99.90;;;;;;5073965;28;20131;-47
2022/07/05 12:16:13;;;;;;;5.18;1.00;;;19.10;99.90;;;;;;5074891;28;20119;-43
2022/07/05 12:18:51;;;;;;;4.18;0.90;;;20.30;1.00;;;;;;5073430;28;20044;-46
2022/07/05 12:21:20;;;;;;;9.63;1.55;;;19.00;1.00;;;;;;5074098;28;20044;-44
2022/07/05 12:23:46;;;;;;;4.35;1.08;;;20.10;99.90;;;;;;5073507;28;20499;-47
2022/07/05 12:26:13;;;;;;;3.63;0.80;;;20.90;99.90;;;;;;5073671;28;20077;-45
2022/07/05 12:28:41;;;;;;;5.40;1.92;;;19.70;99.90;;;;;;5074395;28;20044;-43
2022/07/05 12:31:21;;;;;;;6.82;1.00;;;18.70;1.00;;;;;;5074802;28;20496;-43
2022/07/05 12:33:52;;;;;;;3.75;0.80;;;18.60;1.00;;;;;;5074170;28;20059;-43
2022/07/05 12:36:27;;;;;;;7.10;1.80;;;19.50;1.00;;;;;;5074524;28;20040;-45
2022/07/05 12:38:59;;;;;;;7.38;0.98;;;18.60;1.00;;;;;;5075081;28;20044;-42
2022/07/05 12:41:25;;;;;;;6.47;1.00;;;18.40;99.90;;;;;;5074151;28;20040;-43
2022/07/05 12:43:55;;;;;;;5.43;0.82;;;19.30;99.90;;;;;;5074883;28;20043;-45
2022/07/05 12:46:38;;;;;;;6.97;1.10;;;18.20;95.90;;;;;;5072706;28;20048;-45
2022/07/05 12:49:04;;;;;;;6.30;1.30;;;18.40;99.90;;;;;;5078554;28;20412;-45
2022/07/05 12:51:37;;;;;;;3.83;0.77;;;20.20;99.90;;;;;;5077395;28;20047;-47
2022/07/05 12:59:37;;;;;;;4.78;0.70;;;19.00;99.90;;;;;;5077181;28;22027;-45
2022/07/05 13:02:05;;;;;;;5.47;1.20;;;19.20;99.90;;;;;;5078715;28;20210;-48